createdAt,value
2023-01-03T00:09:44.972Z,8.6
2023-01-03T00:23:44.938Z,8.7
2023-01-03T00:37:44.950Z,8.6
2023-01-03T00:51:45.000Z,8.5
2023-01-03T01:05:44.997Z,8.6
2023-01-03T01:19:44.958Z,8.4
2023-01-03T01:33:45.001Z,8.5
2023-01-03T01:47:44.996Z,8.5
2023-01-03T02:01:45.041Z,8.5
2023-01-03T02:15:45.017Z,8.5
2023-01-03T02:29:44.998Z,8.6
2023-01-03T02:43:44.989Z,8.4
2023-01-03T02:57:45.157Z,8.3
2023-01-03T03:11:45.143Z,8.4
2023-01-03T03:25:45.155Z,8.4
2023-01-03T03:39:45.152Z,8.4
2023-01-03T03:53:45.151Z,8.3
2023-01-03T04:07:45.166Z,8.2
2023-01-03T04:21:45.147Z,8.3
2023-01-03T04:35:45.167Z,8.2
2023-01-03T04:49:45.175Z,8.1
2023-01-03T05:03:45.186Z,8.1
2023-01-03T05:17:45.178Z,8.2
2023-01-03T05:31:45.342Z,8.0
2023-01-03T05:45:45.286Z,8.0
2023-01-03T05:59:45.283Z,8.0
2023-01-03T06:13:45.266Z,8.1
2023-01-03T06:27:45.266Z,8.2
2023-01-03T06:42:45.321Z,8.2
2023-01-03T06:57:45.251Z,8.3
2023-01-03T07:12:45.239Z,8.4
2023-01-03T07:27:45.250Z,8.4
2023-01-03T07:42:45.271Z,8.6
2023-01-03T07:57:45.271Z,8.9
2023-01-03T08:12:45.266Z,9.4
2023-01-03T08:27:49.900Z,9.7
2023-01-03T08:42:45.339Z,9.8
2023-01-03T08:57:45.310Z,9.9
2023-01-03T09:12:45.377Z,10.2
2023-01-03T09:27:45.387Z,10.4
2023-01-03T09:42:45.384Z,10.5
2023-01-03T09:57:45.439Z,11.0
2023-01-03T10:12:45.465Z,11.7
2023-01-03T10:27:45.467Z,11.8
2023-01-03T10:42:45.463Z,11.9
2023-01-03T10:57:45.476Z,12.0
2023-01-03T11:12:45.472Z,11.6
2023-01-03T11:27:45.464Z,11.9
2023-01-03T11:42:45.475Z,12.2
2023-01-03T11:57:45.472Z,12.1
2023-01-03T12:12:45.505Z,12.3
2023-01-03T12:27:45.508Z,12.5
2023-01-03T12:42:45.521Z,12.4
2023-01-03T12:57:45.507Z,12.5
2023-01-03T13:12:45.526Z,12.4
2023-01-03T13:27:45.517Z,12.4
2023-01-03T13:42:45.496Z,12.3
2023-01-03T13:57:45.546Z,12.1
2023-01-03T14:12:45.523Z,11.9
2023-01-03T14:27:45.536Z,11.8
2023-01-03T14:42:45.540Z,11.5
2023-01-03T14:57:45.523Z,11.0
2023-01-03T15:12:45.517Z,10.3
2023-01-03T15:27:45.563Z,9.8
2023-01-03T15:43:45.590Z,9.0
2023-01-03T15:58:45.549Z,8.7
2023-01-03T16:13:45.620Z,8.6
2023-01-03T16:28:45.585Z,8.5
2023-01-03T16:42:45.706Z,8.1
2023-01-03T16:56:45.610Z,7.9
2023-01-03T17:10:45.689Z,7.7
2023-01-03T17:24:45.681Z,7.5
2023-01-03T17:38:45.712Z,7.6
2023-01-03T17:52:48.961Z,7.5
2023-01-03T18:06:45.754Z,7.8
2023-01-03T18:20:45.767Z,7.9
2023-01-03T18:34:45.768Z,8.0
2023-01-03T18:48:45.762Z,8.1
2023-01-03T19:02:45.926Z,7.9
2023-01-03T19:16:45.766Z,7.8
2023-01-03T19:30:45.801Z,7.8
2023-01-03T19:44:45.779Z,7.8
2023-01-03T19:58:45.813Z,7.6
2023-01-03T20:12:45.835Z,7.3
2023-01-03T20:26:45.816Z,7.1
2023-01-03T20:40:45.823Z,7.1
2023-01-03T20:54:45.837Z,6.8
2023-01-03T21:08:45.991Z,6.6
2023-01-03T21:22:45.908Z,6.6
2023-01-03T21:36:45.927Z,6.0
2023-01-03T21:50:46.016Z,5.4
2023-01-03T22:04:45.984Z,5.0
2023-01-03T22:18:46.014Z,5.1
2023-01-03T22:32:46.023Z,5.1
2023-01-03T22:46:45.994Z,5.3
2023-01-03T23:00:46.066Z,4.7
2023-01-03T23:14:46.001Z,4.5
2023-01-03T23:28:46.042Z,4.6
2023-01-03T23:42:46.065Z,4.7
2023-01-03T23:56:46.081Z,4.5
